首页
METAR-TAF:

METAR-TAF

机场 :

阿勒馬克圖姆國際機場

杜拜, 阿拉伯联合酋长国

纬度: 24-53-49N, 经度: 55-09-40E, 海拔: 35米

当前天气观测

该预报发布于11分钟前的09:00 UTC
风速3节,风向多变
温度 38°C
湿度 12%
气压 1014 hPa
能见度10公里或以上
1500米以下无云,无积雨云

METAR: OMDW 170900Z VRB03KT CAVOK 38/04 Q1014 BECMG 32014KT

时间: 13:11 (09:11 UTC)

预报

该预报发布于4小时和14分钟前的04:57 UTC
预报有效从17日的 06点(UTC)到 18日的 12点(UTC)
风速8节,风向
能見度: 7000
成为
从 17日的 09点(UTC)到 17日的 11点(UTC)
风速14节,风向北转西北
成为
从 17日的 16点(UTC)到 17日的 18点(UTC)
风速5节,风向
几率 30%
从 17日的 21点(UTC)到 18日的 00点(UTC)
能見度: 3000
轻雾
几率 30%
从 18日的 00点(UTC)到 18日的 04点(UTC)
能見度: 0100
成为
从 18日的 03点(UTC)到 18日的 05点(UTC)
风速10节,风向
成为
从 18日的 09点(UTC)到 18日的 11点(UTC)
风速14节,风向北转西北

TAF: OMDW 170457Z 1706/1812 18008KT 7000 NSC BECMG 1709/1711 33014KT BECMG 1716/1718 10005KT PROB30 1721/1800 3000 BR PROB30 1800/1804 0100 FG VV/// BECMG 1803/1805 18010KT BECMG 1809/1811 34014KT

超过4000个机场的气象观测和天气预报(METAR&TAF报告)。

可查询的气象台以黄色和红色小点在地图上表示。

将鼠标移到小点上方,可查看气象台名称。

然后点击查看天气观测和预报。

如需切换地图:点击带黑十字的绿色按钮放大地图;点击带横线的绿色按钮缩小地图;或者点击绿色箭头查看邻近地区的地图。


METAR-TAF: